sensor_id;sensor_type;location;lat;lon;timestamp;P1;durP1;ratioP1;P2;durP2;ratioP2
66979;SDS011;54048;51.468;-2.572;2022-11-15T00:00:45;11.20;;;1.38;;
66979;SDS011;54048;51.468;-2.572;2022-11-15T00:03:12;5.55;;;1.05;;
66979;SDS011;54048;51.468;-2.572;2022-11-15T00:05:39;10.10;;;1.30;;
66979;SDS011;54048;51.468;-2.572;2022-11-15T00:08:05;2.80;;;0.95;;
66979;SDS011;54048;51.468;-2.572;2022-11-15T00:10:30;6.07;;;1.42;;
66979;SDS011;54048;51.468;-2.572;2022-11-15T00:12:55;7.55;;;1.35;;
66979;SDS011;54048;51.468;-2.572;2022-11-15T00:15:21;9.18;;;1.35;;
66979;SDS011;54048;51.468;-2.572;2022-11-15T00:17:49;3.60;;;1.00;;
66979;SDS011;54048;51.468;-2.572;2022-11-15T00:20:16;6.97;;;1.20;;
66979;SDS011;54048;51.468;-2.572;2022-11-15T00:22:42;6.22;;;1.38;;
66979;SDS011;54048;51.468;-2.572;2022-11-15T00:28:29;6.82;;;1.20;;
66979;SDS011;54048;51.468;-2.572;2022-11-15T00:30:59;4.85;;;1.10;;
66979;SDS011;54048;51.468;-2.572;2022-11-15T00:33:29;4.55;;;1.20;;
66979;SDS011;54048;51.468;-2.572;2022-11-15T00:36:05;5.13;;;1.35;;
66979;SDS011;54048;51.468;-2.572;2022-11-15T00:38:32;7.47;;;1.20;;
66979;SDS011;54048;51.468;-2.572;2022-11-15T00:40:59;8.35;;;1.17;;
66979;SDS011;54048;51.468;-2.572;2022-11-15T00:43:25;7.50;;;1.20;;
66979;SDS011;54048;51.468;-2.572;2022-11-15T00:45:51;3.42;;;1.20;;
66979;SDS011;54048;51.468;-2.572;2022-11-15T00:48:16;8.60;;;1.60;;
66979;SDS011;54048;51.468;-2.572;2022-11-15T00:50:42;7.05;;;2.03;;
66979;SDS011;54048;51.468;-2.572;2022-11-15T00:53:07;8.88;;;1.73;;
66979;SDS011;54048;51.468;-2.572;2022-11-15T00:55:32;4.68;;;1.25;;
66979;SDS011;54048;51.468;-2.572;2022-11-15T00:57:58;6.57;;;1.20;;
66979;SDS011;54048;51.468;-2.572;2022-11-15T01:00:23;1.70;;;0.75;;
66979;SDS011;54048;51.468;-2.572;2022-11-15T01:06:11;9.57;;;1.08;;
66979;SDS011;54048;51.468;-2.572;2022-11-15T01:08:37;6.78;;;1.45;;
66979;SDS011;54048;51.468;-2.572;2022-11-15T01:11:05;8.43;;;1.30;;
66979;SDS011;54048;51.468;-2.572;2022-11-15T01:13:35;7.93;;;1.83;;
66979;SDS011;54048;51.468;-2.572;2022-11-15T01:16:07;7.85;;;1.55;;
66979;SDS011;54048;51.468;-2.572;2022-11-15T01:18:37;3.67;;;1.08;;
66979;SDS011;54048;51.468;-2.572;2022-11-15T01:21:07;10.73;;;1.25;;
66979;SDS011;54048;51.468;-2.572;2022-11-15T01:23:33;10.68;;;1.30;;
66979;SDS011;54048;51.468;-2.572;2022-11-15T01:26:00;6.93;;;1.20;;
66979;SDS011;54048;51.468;-2.572;2022-11-15T01:28:29;4.28;;;0.95;;
66979;SDS011;54048;51.468;-2.572;2022-11-15T01:30:57;6.75;;;1.60;;
66979;SDS011;54048;51.468;-2.572;2022-11-15T01:40:03;6.68;;;1.42;;
66979;SDS011;54048;51.468;-2.572;2022-11-15T01:42:29;8.05;;;1.30;;
66979;SDS011;54048;51.468;-2.572;2022-11-15T01:44:55;6.93;;;1.48;;
66979;SDS011;54048;51.468;-2.572;2022-11-15T01:47:24;6.57;;;1.05;;
66979;SDS011;54048;51.468;-2.572;2022-11-15T01:50:00;6.05;;;1.30;;
66979;SDS011;54048;51.468;-2.572;2022-11-15T01:52:28;10.43;;;1.20;;
66979;SDS011;54048;51.468;-2.572;2022-11-15T01:57:24;5.22;;;1.17;;
66979;SDS011;54048;51.468;-2.572;2022-11-15T01:59:49;5.45;;;1.25;;
66979;SDS011;54048;51.468;-2.572;2022-11-15T02:02:15;5.28;;;1.20;;
66979;SDS011;54048;51.468;-2.572;2022-11-15T02:04:42;6.80;;;1.08;;
66979;SDS011;54048;51.468;-2.572;2022-11-15T02:07:11;6.00;;;1.20;;
66979;SDS011;54048;51.468;-2.572;2022-11-15T02:09:38;7.53;;;1.08;;
66979;SDS011;54048;51.468;-2.572;2022-11-15T02:12:04;8.35;;;1.10;;
66979;SDS011;54048;51.468;-2.572;2022-11-15T02:14:31;6.15;;;0.88;;
66979;SDS011;54048;51.468;-2.572;2022-11-15T02:30:27;3.13;;;0.90;;
66979;SDS011;54048;51.468;-2.572;2022-11-15T02:33:02;5.03;;;1.30;;
66979;SDS011;54048;51.468;-2.572;2022-11-15T02:35:37;7.03;;;1.13;;
66979;SDS011;54048;51.468;-2.572;2022-11-15T02:40:52;5.13;;;1.48;;
66979;SDS011;54048;51.468;-2.572;2022-11-15T02:43:25;7.32;;;1.70;;
66979;SDS011;54048;51.468;-2.572;2022-11-15T02:49:13;3.13;;;1.05;;
66979;SDS011;54048;51.468;-2.572;2022-11-15T02:51:39;6.28;;;1.25;;
66979;SDS011;54048;51.468;-2.572;2022-11-15T02:54:06;8.35;;;1.67;;
66979;SDS011;54048;51.468;-2.572;2022-11-15T02:56:31;4.50;;;0.95;;
66979;SDS011;54048;51.468;-2.572;2022-11-15T02:59:00;4.22;;;1.33;;
66979;SDS011;54048;51.468;-2.572;2022-11-15T03:07:20;6.55;;;0.90;;
66979;SDS011;54048;51.468;-2.572;2022-11-15T03:10:05;7.22;;;1.45;;
66979;SDS011;54048;51.468;-2.572;2022-11-15T03:18:50;5.10;;;0.98;;
66979;SDS011;54048;51.468;-2.572;2022-11-15T03:21:37;1.15;;;0.80;;
66979;SDS011;54048;51.468;-2.572;2022-11-15T03:24:05;4.57;;;0.77;;
66979;SDS011;54048;51.468;-2.572;2022-11-15T03:26:32;3.50;;;0.70;;
66979;SDS011;54048;51.468;-2.572;2022-11-15T03:29:00;6.15;;;1.20;;
66979;SDS011;54048;51.468;-2.572;2022-11-15T03:31:51;7.10;;;0.95;;
66979;SDS011;54048;51.468;-2.572;2022-11-15T03:34:22;3.67;;;0.80;;
66979;SDS011;54048;51.468;-2.572;2022-11-15T03:36:51;1.65;;;0.68;;
66979;SDS011;54048;51.468;-2.572;2022-11-15T03:39:17;2.72;;;0.75;;
66979;SDS011;54048;51.468;-2.572;2022-11-15T03:41:56;4.95;;;0.80;;
66979;SDS011;54048;51.468;-2.572;2022-11-15T03:50:18;1.83;;;0.68;;
66979;SDS011;54048;51.468;-2.572;2022-11-15T03:52:45;2.40;;;0.82;;
66979;SDS011;54048;51.468;-2.572;2022-11-15T03:55:13;1.98;;;1.08;;
66979;SDS011;54048;51.468;-2.572;2022-11-15T03:57:41;1.33;;;0.60;;
66979;SDS011;54048;51.468;-2.572;2022-11-15T04:00:07;1.98;;;0.77;;
66979;SDS011;54048;51.468;-2.572;2022-11-15T04:02:33;4.15;;;0.80;;
66979;SDS011;54048;51.468;-2.572;2022-11-15T04:04:59;4.30;;;0.95;;
66979;SDS011;54048;51.468;-2.572;2022-11-15T04:07:24;1.75;;;0.70;;
66979;SDS011;54048;51.468;-2.572;2022-11-15T04:09:49;1.30;;;0.63;;
66979;SDS011;54048;51.468;-2.572;2022-11-15T04:12:27;1.35;;;0.57;;
66979;SDS011;54048;51.468;-2.572;2022-11-15T04:14:57;2.55;;;0.70;;
66979;SDS011;54048;51.468;-2.572;2022-11-15T04:17:36;3.92;;;0.70;;
66979;SDS011;54048;51.468;-2.572;2022-11-15T04:20:07;0.93;;;0.57;;
66979;SDS011;54048;51.468;-2.572;2022-11-15T04:23:11;0.85;;;0.68;;
66979;SDS011;54048;51.468;-2.572;2022-11-15T04:25:58;1.08;;;0.50;;
66979;SDS011;54048;51.468;-2.572;2022-11-15T04:28:25;0.50;;;0.50;;
66979;SDS011;54048;51.468;-2.572;2022-11-15T04:30:50;0.57;;;0.50;;
66979;SDS011;54048;51.468;-2.572;2022-11-15T04:33:16;2.30;;;0.50;;
66979;SDS011;54048;51.468;-2.572;2022-11-15T04:35:42;1.85;;;0.60;;
66979;SDS011;54048;51.468;-2.572;2022-11-15T04:38:08;1.52;;;0.60;;
66979;SDS011;54048;51.468;-2.572;2022-11-15T04:40:35;0.50;;;0.50;;
66979;SDS011;54048;51.468;-2.572;2022-11-15T04:43:01;0.90;;;0.40;;
66979;SDS011;54048;51.468;-2.572;2022-11-15T04:45:26;0.60;;;0.55;;
66979;SDS011;54048;51.468;-2.572;2022-11-15T04:47:51;0.40;;;0.40;;
66979;SDS011;54048;51.468;-2.572;2022-11-15T04:50:17;0.65;;;0.50;;
66979;SDS011;54048;51.468;-2.572;2022-11-15T04:52:43;1.65;;;0.70;;
66979;SDS011;54048;51.468;-2.572;2022-11-15T04:55:14;0.85;;;0.55;;
66979;SDS011;54048;51.468;-2.572;2022-11-15T04:57:40;0.60;;;0.60;;
66979;SDS011;54048;51.468;-2.572;2022-11-15T05:00:10;0.60;;;0.60;;
66979;SDS011;54048;51.468;-2.572;2022-11-15T05:02:37;1.08;;;0.47;;
66979;SDS011;54048;51.468;-2.572;2022-11-15T05:05:21;1.17;;;0.65;;
66979;SDS011;54048;51.468;-2.572;2022-11-15T05:07:46;0.90;;;0.50;;
66979;SDS011;54048;51.468;-2.572;2022-11-15T05:10:11;1.27;;;0.60;;
66979;SDS011;54048;51.468;-2.572;2022-11-15T05:12:37;2.15;;;0.70;;
66979;SDS011;54048;51.468;-2.572;2022-11-15T05:15:03;0.40;;;0.40;;
66979;SDS011;54048;51.468;-2.572;2022-11-15T05:17:28;0.40;;;0.40;;
66979;SDS011;54048;51.468;-2.572;2022-11-15T05:19:54;0.75;;;0.55;;
66979;SDS011;54048;51.468;-2.572;2022-11-15T05:22:19;1.60;;;0.50;;
66979;SDS011;54048;51.468;-2.572;2022-11-15T05:24:45;2.33;;;0.60;;
66979;SDS011;54048;51.468;-2.572;2022-11-15T05:27:10;1.98;;;0.70;;
66979;SDS011;54048;51.468;-2.572;2022-11-15T05:29:35;2.20;;;0.50;;
66979;SDS011;54048;51.468;-2.572;2022-11-15T05:32:02;0.88;;;0.50;;
66979;SDS011;54048;51.468;-2.572;2022-11-15T05:34:28;0.85;;;0.45;;
66979;SDS011;54048;51.468;-2.572;2022-11-15T05:36:54;2.63;;;0.80;;
66979;SDS011;54048;51.468;-2.572;2022-11-15T05:39:19;2.65;;;0.93;;
66979;SDS011;54048;51.468;-2.572;2022-11-15T05:41:46;2.92;;;0.50;;
66979;SDS011;54048;51.468;-2.572;2022-11-15T05:44:15;0.55;;;0.55;;
66979;SDS011;54048;51.468;-2.572;2022-11-15T05:46:43;1.33;;;0.60;;
66979;SDS011;54048;51.468;-2.572;2022-11-15T05:49:10;5.50;;;1.10;;
66979;SDS011;54048;51.468;-2.572;2022-11-15T05:51:37;3.47;;;1.00;;
66979;SDS011;54048;51.468;-2.572;2022-11-15T05:54:03;3.30;;;0.73;;
66979;SDS011;54048;51.468;-2.572;2022-11-15T05:56:28;2.63;;;0.70;;
66979;SDS011;54048;51.468;-2.572;2022-11-15T05:58:54;4.68;;;0.80;;
66979;SDS011;54048;51.468;-2.572;2022-11-15T06:01:20;4.88;;;1.00;;
66979;SDS011;54048;51.468;-2.572;2022-11-15T06:03:46;5.75;;;0.80;;
66979;SDS011;54048;51.468;-2.572;2022-11-15T06:06:11;5.10;;;0.70;;
66979;SDS011;54048;51.468;-2.572;2022-11-15T06:08:37;2.33;;;0.90;;
66979;SDS011;54048;51.468;-2.572;2022-11-15T06:11:03;1.30;;;0.70;;
66979;SDS011;54048;51.468;-2.572;2022-11-15T06:13:30;2.50;;;0.70;;
66979;SDS011;54048;51.468;-2.572;2022-11-15T06:15:55;1.83;;;0.70;;
66979;SDS011;54048;51.468;-2.572;2022-11-15T06:18:21;2.17;;;0.65;;
66979;SDS011;54048;51.468;-2.572;2022-11-15T06:20:47;1.48;;;0.57;;
66979;SDS011;54048;51.468;-2.572;2022-11-15T06:23:12;1.90;;;0.90;;
66979;SDS011;54048;51.468;-2.572;2022-11-15T06:25:38;2.83;;;0.82;;
66979;SDS011;54048;51.468;-2.572;2022-11-15T06:28:03;1.15;;;0.65;;
66979;SDS011;54048;51.468;-2.572;2022-11-15T06:30:29;2.03;;;0.70;;
66979;SDS011;54048;51.468;-2.572;2022-11-15T06:33:04;2.58;;;0.90;;
66979;SDS011;54048;51.468;-2.572;2022-11-15T06:35:30;2.55;;;1.00;;
66979;SDS011;54048;51.468;-2.572;2022-11-15T06:38:05;2.40;;;1.13;;
66979;SDS011;54048;51.468;-2.572;2022-11-15T06:40:35;1.25;;;0.63;;
66979;SDS011;54048;51.468;-2.572;2022-11-15T06:43:01;2.72;;;0.88;;
66979;SDS011;54048;51.468;-2.572;2022-11-15T06:45:27;1.95;;;0.70;;
66979;SDS011;54048;51.468;-2.572;2022-11-15T06:47:53;1.75;;;0.55;;
66979;SDS011;54048;51.468;-2.572;2022-11-15T06:50:18;4.85;;;1.02;;
66979;SDS011;54048;51.468;-2.572;2022-11-15T06:52:44;1.85;;;1.20;;
66979;SDS011;54048;51.468;-2.572;2022-11-15T06:55:09;2.63;;;0.73;;
66979;SDS011;54048;51.468;-2.572;2022-11-15T06:57:35;4.55;;;1.08;;
66979;SDS011;54048;51.468;-2.572;2022-11-15T07:00:02;2.35;;;0.80;;
66979;SDS011;54048;51.468;-2.572;2022-11-15T07:02:29;3.85;;;0.88;;
66979;SDS011;54048;51.468;-2.572;2022-11-15T07:04:54;1.75;;;0.77;;
66979;SDS011;54048;51.468;-2.572;2022-11-15T07:07:20;3.53;;;1.15;;
66979;SDS011;54048;51.468;-2.572;2022-11-15T07:09:45;4.60;;;1.17;;
66979;SDS011;54048;51.468;-2.572;2022-11-15T07:12:10;4.78;;;0.70;;
66979;SDS011;54048;51.468;-2.572;2022-11-15T07:14:36;3.05;;;1.25;;
66979;SDS011;54048;51.468;-2.572;2022-11-15T07:17:03;2.13;;;0.90;;
66979;SDS011;54048;51.468;-2.572;2022-11-15T07:19:29;4.30;;;0.80;;
66979;SDS011;54048;51.468;-2.572;2022-11-15T07:21:55;3.03;;;0.93;;
66979;SDS011;54048;51.468;-2.572;2022-11-15T07:24:20;6.78;;;1.10;;
66979;SDS011;54048;51.468;-2.572;2022-11-15T07:26:46;4.38;;;1.10;;
66979;SDS011;54048;51.468;-2.572;2022-11-15T07:29:11;5.70;;;1.15;;
66979;SDS011;54048;51.468;-2.572;2022-11-15T07:31:36;9.48;;;1.05;;
66979;SDS011;54048;51.468;-2.572;2022-11-15T07:34:02;3.88;;;0.82;;
66979;SDS011;54048;51.468;-2.572;2022-11-15T07:36:28;2.75;;;0.80;;
66979;SDS011;54048;51.468;-2.572;2022-11-15T07:38:56;3.08;;;1.00;;
66979;SDS011;54048;51.468;-2.572;2022-11-15T07:41:21;1.90;;;0.70;;
66979;SDS011;54048;51.468;-2.572;2022-11-15T07:43:47;4.22;;;0.95;;
66979;SDS011;54048;51.468;-2.572;2022-11-15T07:46:12;4.28;;;1.20;;
66979;SDS011;54048;51.468;-2.572;2022-11-15T07:48:38;3.28;;;0.80;;
66979;SDS011;54048;51.468;-2.572;2022-11-15T07:51:06;4.68;;;1.00;;
66979;SDS011;54048;51.468;-2.572;2022-11-15T07:53:32;2.30;;;0.80;;
66979;SDS011;54048;51.468;-2.572;2022-11-15T07:55:57;5.65;;;1.08;;
66979;SDS011;54048;51.468;-2.572;2022-11-15T07:58:23;3.67;;;0.98;;
66979;SDS011;54048;51.468;-2.572;2022-11-15T08:00:48;1.20;;;0.75;;
66979;SDS011;54048;51.468;-2.572;2022-11-15T08:03:14;3.05;;;0.57;;
66979;SDS011;54048;51.468;-2.572;2022-11-15T08:05:41;3.08;;;0.93;;
66979;SDS011;54048;51.468;-2.572;2022-11-15T08:08:07;2.33;;;0.80;;
66979;SDS011;54048;51.468;-2.572;2022-11-15T08:10:33;4.03;;;0.77;;
66979;SDS011;54048;51.468;-2.572;2022-11-15T08:13:09;1.00;;;0.60;;
66979;SDS011;54048;51.468;-2.572;2022-11-15T08:15:35;2.25;;;0.65;;
66979;SDS011;54048;51.468;-2.572;2022-11-15T08:18:02;4.97;;;0.88;;
66979;SDS011;54048;51.468;-2.572;2022-11-15T08:20:30;3.17;;;0.70;;
66979;SDS011;54048;51.468;-2.572;2022-11-15T08:23:00;3.85;;;0.95;;
66979;SDS011;54048;51.468;-2.572;2022-11-15T08:25:27;4.38;;;0.82;;
66979;SDS011;54048;51.468;-2.572;2022-11-15T08:27:54;1.13;;;0.70;;
66979;SDS011;54048;51.468;-2.572;2022-11-15T08:30:21;1.55;;;0.60;;
66979;SDS011;54048;51.468;-2.572;2022-11-15T08:32:46;2.58;;;0.80;;
66979;SDS011;54048;51.468;-2.572;2022-11-15T08:35:13;3.63;;;0.68;;
66979;SDS011;54048;51.468;-2.572;2022-11-15T08:37:39;1.95;;;0.70;;
66979;SDS011;54048;51.468;-2.572;2022-11-15T08:40:04;1.63;;;0.70;;
66979;SDS011;54048;51.468;-2.572;2022-11-15T08:42:30;2.10;;;0.70;;
66979;SDS011;54048;51.468;-2.572;2022-11-15T08:44:56;2.05;;;0.75;;
66979;SDS011;54048;51.468;-2.572;2022-11-15T08:47:21;0.65;;;0.50;;
66979;SDS011;54048;51.468;-2.572;2022-11-15T08:49:47;1.77;;;0.60;;
66979;SDS011;54048;51.468;-2.572;2022-11-15T08:52:13;4.13;;;1.02;;
66979;SDS011;54048;51.468;-2.572;2022-11-15T08:54:39;0.60;;;0.50;;
66979;SDS011;54048;51.468;-2.572;2022-11-15T08:57:04;1.50;;;0.50;;
66979;SDS011;54048;51.468;-2.572;2022-11-15T08:59:31;1.98;;;0.98;;
66979;SDS011;54048;51.468;-2.572;2022-11-15T09:01:56;1.65;;;1.30;;
66979;SDS011;54048;51.468;-2.572;2022-11-15T09:04:21;1.48;;;0.75;;
66979;SDS011;54048;51.468;-2.572;2022-11-15T09:06:47;1.23;;;0.90;;
66979;SDS011;54048;51.468;-2.572;2022-11-15T09:09:12;11.60;;;3.70;;
66979;SDS011;54048;51.468;-2.572;2022-11-15T09:11:38;2.47;;;1.30;;
66979;SDS011;54048;51.468;-2.572;2022-11-15T09:14:03;2.50;;;1.00;;
66979;SDS011;54048;51.468;-2.572;2022-11-15T09:16:30;1.42;;;0.75;;
66979;SDS011;54048;51.468;-2.572;2022-11-15T09:18:56;2.15;;;1.00;;
66979;SDS011;54048;51.468;-2.572;2022-11-15T09:21:21;6.25;;;1.88;;
66979;SDS011;54048;51.468;-2.572;2022-11-15T09:23:49;5.00;;;0.80;;
66979;SDS011;54048;51.468;-2.572;2022-11-15T09:26:15;3.00;;;0.90;;
66979;SDS011;54048;51.468;-2.572;2022-11-15T09:28:41;1.55;;;0.82;;
66979;SDS011;54048;51.468;-2.572;2022-11-15T09:31:07;1.92;;;0.90;;
66979;SDS011;54048;51.468;-2.572;2022-11-15T09:33:33;1.65;;;0.70;;
66979;SDS011;54048;51.468;-2.572;2022-11-15T09:36:02;1.75;;;1.20;;
66979;SDS011;54048;51.468;-2.572;2022-11-15T09:38:29;3.67;;;0.85;;
66979;SDS011;54048;51.468;-2.572;2022-11-15T09:41:07;1.55;;;0.80;;
66979;SDS011;54048;51.468;-2.572;2022-11-15T09:48:57;2.42;;;0.77;;
66979;SDS011;54048;51.468;-2.572;2022-11-15T09:51:25;1.73;;;1.20;;
66979;SDS011;54048;51.468;-2.572;2022-11-15T09:54:27;5.93;;;1.40;;
66979;SDS011;54048;51.468;-2.572;2022-11-15T09:56:50;3.15;;;1.30;;
66979;SDS011;54048;51.468;-2.572;2022-11-15T09:59:38;1.80;;;1.17;;
66979;SDS011;54048;51.468;-2.572;2022-11-15T10:04:58;8.60;;;3.45;;
66979;SDS011;54048;51.468;-2.572;2022-11-15T10:12:21;3.47;;;1.58;;
66979;SDS011;54048;51.468;-2.572;2022-11-15T10:14:47;5.30;;;1.73;;
66979;SDS011;54048;51.468;-2.572;2022-11-15T10:20:00;4.00;;;1.38;;
66979;SDS011;54048;51.468;-2.572;2022-11-15T10:22:28;2.78;;;1.45;;
66979;SDS011;54048;51.468;-2.572;2022-11-15T10:27:28;6.75;;;1.80;;
66979;SDS011;54048;51.468;-2.572;2022-11-15T10:29:54;5.85;;;1.58;;
66979;SDS011;54048;51.468;-2.572;2022-11-15T10:32:20;2.97;;;1.42;;
66979;SDS011;54048;51.468;-2.572;2022-11-15T10:34:46;3.50;;;1.20;;
66979;SDS011;54048;51.468;-2.572;2022-11-15T10:37:13;6.93;;;1.67;;
66979;SDS011;54048;51.468;-2.572;2022-11-15T10:39:38;2.40;;;1.02;;
66979;SDS011;54048;51.468;-2.572;2022-11-15T10:44:42;7.38;;;2.80;;
66979;SDS011;54048;51.468;-2.572;2022-11-15T10:47:25;6.35;;;2.30;;
66979;SDS011;54048;51.468;-2.572;2022-11-15T10:49:54;6.28;;;1.85;;
66979;SDS011;54048;51.468;-2.572;2022-11-15T10:52:21;19.70;;;4.45;;
66979;SDS011;54048;51.468;-2.572;2022-11-15T10:57:28;8.32;;;1.98;;
66979;SDS011;54048;51.468;-2.572;2022-11-15T10:59:57;3.35;;;1.63;;
66979;SDS011;54048;51.468;-2.572;2022-11-15T11:02:31;6.57;;;1.33;;
66979;SDS011;54048;51.468;-2.572;2022-11-15T11:05:02;4.18;;;1.40;;
66979;SDS011;54048;51.468;-2.572;2022-11-15T11:07:31;1.80;;;0.95;;
66979;SDS011;54048;51.468;-2.572;2022-11-15T11:12:42;8.10;;;1.80;;
66979;SDS011;54048;51.468;-2.572;2022-11-15T11:15:11;5.38;;;1.83;;
66979;SDS011;54048;51.468;-2.572;2022-11-15T11:17:50;2.50;;;1.10;;
66979;SDS011;54048;51.468;-2.572;2022-11-15T11:20:25;4.72;;;1.60;;
66979;SDS011;54048;51.468;-2.572;2022-11-15T11:29:12;5.15;;;1.52;;
66979;SDS011;54048;51.468;-2.572;2022-11-15T11:34:50;6.32;;;1.75;;
66979;SDS011;54048;51.468;-2.572;2022-11-15T11:42:55;4.53;;;1.83;;
66979;SDS011;54048;51.468;-2.572;2022-11-15T11:45:53;6.55;;;1.85;;
66979;SDS011;54048;51.468;-2.572;2022-11-15T11:48:43;6.10;;;1.55;;
66979;SDS011;54048;51.468;-2.572;2022-11-15T11:51:24;3.75;;;1.70;;
66979;SDS011;54048;51.468;-2.572;2022-11-15T11:56:25;7.50;;;1.92;;
66979;SDS011;54048;51.468;-2.572;2022-11-15T11:58:53;5.85;;;2.15;;
66979;SDS011;54048;51.468;-2.572;2022-11-15T12:01:24;14.43;;;3.15;;
66979;SDS011;54048;51.468;-2.572;2022-11-15T12:14:26;5.00;;;2.30;;
66979;SDS011;54048;51.468;-2.572;2022-11-15T12:16:56;3.97;;;1.60;;
66979;SDS011;54048;51.468;-2.572;2022-11-15T12:19:22;2.25;;;1.48;;
66979;SDS011;54048;51.468;-2.572;2022-11-15T12:22:00;7.95;;;1.70;;
66979;SDS011;54048;51.468;-2.572;2022-11-15T12:24:35;3.90;;;1.33;;
66979;SDS011;54048;51.468;-2.572;2022-11-15T12:29:42;9.30;;;2.00;;
66979;SDS011;54048;51.468;-2.572;2022-11-15T12:32:36;4.68;;;2.08;;
66979;SDS011;54048;51.468;-2.572;2022-11-15T12:35:04;5.13;;;1.52;;
66979;SDS011;54048;51.468;-2.572;2022-11-15T12:37:46;7.20;;;1.60;;
66979;SDS011;54048;51.468;-2.572;2022-11-15T12:40:18;8.52;;;2.00;;
66979;SDS011;54048;51.468;-2.572;2022-11-15T12:45:38;8.02;;;1.70;;
66979;SDS011;54048;51.468;-2.572;2022-11-15T12:56:22;7.30;;;1.35;;
66979;SDS011;54048;51.468;-2.572;2022-11-15T13:06:48;5.70;;;1.30;;
66979;SDS011;54048;51.468;-2.572;2022-11-15T13:12:10;8.65;;;1.98;;
66979;SDS011;54048;51.468;-2.572;2022-11-15T13:14:51;8.80;;;1.67;;
66979;SDS011;54048;51.468;-2.572;2022-11-15T13:19:57;7.93;;;2.13;;
66979;SDS011;54048;51.468;-2.572;2022-11-15T13:22:42;13.73;;;2.60;;
66979;SDS011;54048;51.468;-2.572;2022-11-15T13:25:23;8.07;;;2.30;;
66979;SDS011;54048;51.468;-2.572;2022-11-15T13:30:34;5.72;;;1.75;;
66979;SDS011;54048;51.468;-2.572;2022-11-15T13:33:05;5.38;;;1.95;;
66979;SDS011;54048;51.468;-2.572;2022-11-15T13:35:39;8.70;;;2.03;;
66979;SDS011;54048;51.468;-2.572;2022-11-15T13:38:05;9.10;;;2.08;;
66979;SDS011;54048;51.468;-2.572;2022-11-15T13:40:35;6.40;;;1.65;;
66979;SDS011;54048;51.468;-2.572;2022-11-15T13:43:17;7.70;;;1.85;;
66979;SDS011;54048;51.468;-2.572;2022-11-15T13:46:05;7.85;;;2.92;;
66979;SDS011;54048;51.468;-2.572;2022-11-15T13:48:34;11.25;;;2.20;;
66979;SDS011;54048;51.468;-2.572;2022-11-15T13:51:00;10.35;;;2.72;;
66979;SDS011;54048;51.468;-2.572;2022-11-15T13:53:31;11.68;;;1.90;;
66979;SDS011;54048;51.468;-2.572;2022-11-15T13:55:58;8.60;;;1.52;;
66979;SDS011;54048;51.468;-2.572;2022-11-15T13:58:23;7.07;;;1.60;;
66979;SDS011;54048;51.468;-2.572;2022-11-15T14:00:49;7.75;;;1.92;;
66979;SDS011;54048;51.468;-2.572;2022-11-15T14:03:28;8.52;;;1.27;;
66979;SDS011;54048;51.468;-2.572;2022-11-15T14:06:14;7.90;;;1.15;;
66979;SDS011;54048;51.468;-2.572;2022-11-15T14:08:41;3.60;;;1.10;;
66979;SDS011;54048;51.468;-2.572;2022-11-15T14:11:18;10.55;;;1.50;;
66979;SDS011;54048;51.468;-2.572;2022-11-15T14:16:32;9.57;;;1.55;;
66979;SDS011;54048;51.468;-2.572;2022-11-15T14:19:06;7.65;;;1.48;;
66979;SDS011;54048;51.468;-2.572;2022-11-15T14:21:34;11.48;;;1.90;;
66979;SDS011;54048;51.468;-2.572;2022-11-15T14:24:19;5.03;;;1.40;;
66979;SDS011;54048;51.468;-2.572;2022-11-15T14:26:45;8.32;;;1.77;;
66979;SDS011;54048;51.468;-2.572;2022-11-15T14:29:21;13.85;;;2.38;;
66979;SDS011;54048;51.468;-2.572;2022-11-15T14:31:48;9.30;;;2.55;;
66979;SDS011;54048;51.468;-2.572;2022-11-15T14:34:13;11.10;;;2.22;;
66979;SDS011;54048;51.468;-2.572;2022-11-15T14:36:39;11.02;;;1.95;;
66979;SDS011;54048;51.468;-2.572;2022-11-15T14:39:04;12.30;;;2.95;;
66979;SDS011;54048;51.468;-2.572;2022-11-15T14:41:33;20.23;;;3.97;;
66979;SDS011;54048;51.468;-2.572;2022-11-15T14:44:02;12.90;;;2.88;;
66979;SDS011;54048;51.468;-2.572;2022-11-15T14:46:28;9.65;;;1.85;;
66979;SDS011;54048;51.468;-2.572;2022-11-15T14:48:54;8.77;;;1.70;;
66979;SDS011;54048;51.468;-2.572;2022-11-15T14:51:20;12.48;;;2.47;;
66979;SDS011;54048;51.468;-2.572;2022-11-15T14:53:46;7.13;;;1.55;;
66979;SDS011;54048;51.468;-2.572;2022-11-15T14:56:15;8.57;;;2.00;;
66979;SDS011;54048;51.468;-2.572;2022-11-15T14:58:41;6.75;;;2.15;;
66979;SDS011;54048;51.468;-2.572;2022-11-15T15:01:16;9.05;;;2.28;;
66979;SDS011;54048;51.468;-2.572;2022-11-15T15:03:44;7.60;;;1.75;;
66979;SDS011;54048;51.468;-2.572;2022-11-15T15:06:10;12.85;;;2.00;;
66979;SDS011;54048;51.468;-2.572;2022-11-15T15:08:39;5.85;;;1.67;;
66979;SDS011;54048;51.468;-2.572;2022-11-15T15:11:16;15.32;;;2.28;;
66979;SDS011;54048;51.468;-2.572;2022-11-15T15:13:45;7.85;;;1.80;;
66979;SDS011;54048;51.468;-2.572;2022-11-15T15:16:10;9.32;;;2.03;;
66979;SDS011;54048;51.468;-2.572;2022-11-15T15:18:36;6.05;;;1.52;;
66979;SDS011;54048;51.468;-2.572;2022-11-15T15:21:01;11.93;;;2.78;;
66979;SDS011;54048;51.468;-2.572;2022-11-15T15:23:32;4.60;;;1.67;;
66979;SDS011;54048;51.468;-2.572;2022-11-15T15:25:58;8.07;;;1.70;;
66979;SDS011;54048;51.468;-2.572;2022-11-15T15:28:24;7.10;;;1.77;;
66979;SDS011;54048;51.468;-2.572;2022-11-15T15:30:49;10.07;;;1.80;;
66979;SDS011;54048;51.468;-2.572;2022-11-15T15:33:15;4.82;;;1.85;;
66979;SDS011;54048;51.468;-2.572;2022-11-15T15:35:41;2.30;;;1.20;;
66979;SDS011;54048;51.468;-2.572;2022-11-15T15:38:16;7.03;;;1.30;;
66979;SDS011;54048;51.468;-2.572;2022-11-15T15:40:41;4.82;;;1.15;;
66979;SDS011;54048;51.468;-2.572;2022-11-15T15:43:07;3.72;;;1.27;;
66979;SDS011;54048;51.468;-2.572;2022-11-15T15:45:34;5.50;;;1.40;;
66979;SDS011;54048;51.468;-2.572;2022-11-15T15:48:02;4.72;;;1.35;;
66979;SDS011;54048;51.468;-2.572;2022-11-15T15:50:28;5.18;;;1.33;;
66979;SDS011;54048;51.468;-2.572;2022-11-15T15:52:59;8.70;;;1.65;;
66979;SDS011;54048;51.468;-2.572;2022-11-15T15:55:25;5.55;;;1.10;;
66979;SDS011;54048;51.468;-2.572;2022-11-15T15:57:51;7.63;;;1.67;;
66979;SDS011;54048;51.468;-2.572;2022-11-15T16:00:18;3.72;;;1.25;;
66979;SDS011;54048;51.468;-2.572;2022-11-15T16:02:44;5.32;;;1.40;;
66979;SDS011;54048;51.468;-2.572;2022-11-15T16:05:11;6.30;;;1.70;;
66979;SDS011;54048;51.468;-2.572;2022-11-15T16:07:37;3.20;;;1.35;;
66979;SDS011;54048;51.468;-2.572;2022-11-15T16:10:14;7.82;;;1.58;;
66979;SDS011;54048;51.468;-2.572;2022-11-15T16:12:47;3.60;;;1.50;;
66979;SDS011;54048;51.468;-2.572;2022-11-15T16:15:13;3.90;;;1.42;;
66979;SDS011;54048;51.468;-2.572;2022-11-15T16:17:39;4.90;;;1.75;;
66979;SDS011;54048;51.468;-2.572;2022-11-15T16:20:51;4.47;;;1.85;;
66979;SDS011;54048;51.468;-2.572;2022-11-15T16:23:16;5.53;;;2.35;;
66979;SDS011;54048;51.468;-2.572;2022-11-15T16:25:48;6.47;;;2.63;;
66979;SDS011;54048;51.468;-2.572;2022-11-15T16:31:01;6.97;;;2.95;;
66979;SDS011;54048;51.468;-2.572;2022-11-15T16:33:33;6.70;;;2.33;;
66979;SDS011;54048;51.468;-2.572;2022-11-15T16:35:59;4.75;;;1.70;;
66979;SDS011;54048;51.468;-2.572;2022-11-15T16:38:25;7.55;;;1.90;;
66979;SDS011;54048;51.468;-2.572;2022-11-15T16:40:50;4.45;;;1.73;;
66979;SDS011;54048;51.468;-2.572;2022-11-15T16:43:16;11.43;;;1.85;;
66979;SDS011;54048;51.468;-2.572;2022-11-15T16:45:42;8.15;;;2.92;;
66979;SDS011;54048;51.468;-2.572;2022-11-15T16:48:15;16.42;;;3.63;;
66979;SDS011;54048;51.468;-2.572;2022-11-15T16:50:46;13.45;;;4.25;;
66979;SDS011;54048;51.468;-2.572;2022-11-15T16:53:11;24.02;;;9.35;;
66979;SDS011;54048;51.468;-2.572;2022-11-15T16:55:36;53.90;;;21.02;;
66979;SDS011;54048;51.468;-2.572;2022-11-15T16:58:02;43.30;;;16.70;;
66979;SDS011;54048;51.468;-2.572;2022-11-15T17:00:28;19.20;;;9.18;;
66979;SDS011;54048;51.468;-2.572;2022-11-15T17:02:53;31.58;;;12.77;;
66979;SDS011;54048;51.468;-2.572;2022-11-15T17:05:21;22.45;;;9.82;;